sensor_id;sensor_type;location;lat;lon;timestamp;P1;durP1;ratioP1;P2;durP2;ratioP2
9224;SDS011;4647;48.072;11.616;2023-02-08T00:01:26;25.93;;;16.47;;
9224;SDS011;4647;48.072;11.616;2023-02-08T00:03:54;25.30;;;17.10;;
9224;SDS011;4647;48.072;11.616;2023-02-08T00:06:25;25.07;;;16.47;;
9224;SDS011;4647;48.072;11.616;2023-02-08T00:08:53;22.97;;;15.90;;
9224;SDS011;4647;48.072;11.616;2023-02-08T00:11:22;20.17;;;14.43;;
9224;SDS011;4647;48.072;11.616;2023-02-08T00:13:50;26.53;;;16.13;;
9224;SDS011;4647;48.072;11.616;2023-02-08T00:16:19;23.87;;;15.70;;
9224;SDS011;4647;48.072;11.616;2023-02-08T00:18:47;22.67;;;15.60;;
9224;SDS011;4647;48.072;11.616;2023-02-08T00:21:17;21.63;;;15.47;;
9224;SDS011;4647;48.072;11.616;2023-02-08T00:23:48;21.70;;;15.83;;
9224;SDS011;4647;48.072;11.616;2023-02-08T00:26:16;24.67;;;15.97;;
9224;SDS011;4647;48.072;11.616;2023-02-08T00:28:45;20.57;;;15.30;;
9224;SDS011;4647;48.072;11.616;2023-02-08T00:31:13;26.10;;;16.60;;
9224;SDS011;4647;48.072;11.616;2023-02-08T00:33:42;24.03;;;16.00;;
9224;SDS011;4647;48.072;11.616;2023-02-08T00:36:10;22.57;;;16.93;;
9224;SDS011;4647;48.072;11.616;2023-02-08T00:38:38;25.00;;;16.80;;
9224;SDS011;4647;48.072;11.616;2023-02-08T00:41:09;24.13;;;18.27;;
9224;SDS011;4647;48.072;11.616;2023-02-08T00:43:38;25.27;;;15.90;;
9224;SDS011;4647;48.072;11.616;2023-02-08T00:46:07;26.20;;;17.60;;
9224;SDS011;4647;48.072;11.616;2023-02-08T00:48:36;23.97;;;17.10;;
9224;SDS011;4647;48.072;11.616;2023-02-08T00:51:05;26.27;;;17.50;;
9224;SDS011;4647;48.072;11.616;2023-02-08T00:53:37;21.77;;;16.00;;
9224;SDS011;4647;48.072;11.616;2023-02-08T00:56:10;25.00;;;16.37;;
9224;SDS011;4647;48.072;11.616;2023-02-08T00:58:40;24.43;;;16.77;;
9224;SDS011;4647;48.072;11.616;2023-02-08T01:01:09;21.50;;;16.00;;
9224;SDS011;4647;48.072;11.616;2023-02-08T01:03:38;25.67;;;17.47;;
9224;SDS011;4647;48.072;11.616;2023-02-08T01:06:09;26.70;;;16.87;;
9224;SDS011;4647;48.072;11.616;2023-02-08T01:08:39;24.43;;;17.10;;
9224;SDS011;4647;48.072;11.616;2023-02-08T01:11:11;25.60;;;16.70;;
9224;SDS011;4647;48.072;11.616;2023-02-08T01:13:41;27.77;;;17.23;;
9224;SDS011;4647;48.072;11.616;2023-02-08T01:16:11;23.53;;;16.53;;
9224;SDS011;4647;48.072;11.616;2023-02-08T01:18:41;23.13;;;16.70;;
9224;SDS011;4647;48.072;11.616;2023-02-08T01:21:12;27.93;;;17.43;;
9224;SDS011;4647;48.072;11.616;2023-02-08T01:23:42;22.80;;;16.93;;
9224;SDS011;4647;48.072;11.616;2023-02-08T01:26:14;25.00;;;17.87;;
9224;SDS011;4647;48.072;11.616;2023-02-08T01:28:44;24.83;;;18.03;;
9224;SDS011;4647;48.072;11.616;2023-02-08T01:31:14;29.33;;;17.40;;
9224;SDS011;4647;48.072;11.616;2023-02-08T01:33:43;24.33;;;16.80;;
9224;SDS011;4647;48.072;11.616;2023-02-08T01:36:12;26.33;;;18.80;;
9224;SDS011;4647;48.072;11.616;2023-02-08T01:38:41;27.73;;;17.37;;
9224;SDS011;4647;48.072;11.616;2023-02-08T01:41:12;21.57;;;16.53;;
9224;SDS011;4647;48.072;11.616;2023-02-08T01:43:57;26.87;;;17.57;;
9224;SDS011;4647;48.072;11.616;2023-02-08T01:46:31;25.13;;;16.90;;
9224;SDS011;4647;48.072;11.616;2023-02-08T01:49:02;24.53;;;17.23;;
9224;SDS011;4647;48.072;11.616;2023-02-08T01:51:35;27.27;;;17.60;;
9224;SDS011;4647;48.072;11.616;2023-02-08T01:54:08;25.20;;;16.70;;
9224;SDS011;4647;48.072;11.616;2023-02-08T01:56:42;24.53;;;17.77;;
9224;SDS011;4647;48.072;11.616;2023-02-08T01:59:20;25.13;;;17.77;;
9224;SDS011;4647;48.072;11.616;2023-02-08T02:01:52;26.53;;;18.10;;
9224;SDS011;4647;48.072;11.616;2023-02-08T02:04:23;26.63;;;18.60;;
9224;SDS011;4647;48.072;11.616;2023-02-08T02:06:55;26.37;;;17.67;;
9224;SDS011;4647;48.072;11.616;2023-02-08T02:09:28;30.03;;;19.10;;
9224;SDS011;4647;48.072;11.616;2023-02-08T02:12:06;25.13;;;16.10;;
9224;SDS011;4647;48.072;11.616;2023-02-08T02:14:36;27.03;;;17.33;;
9224;SDS011;4647;48.072;11.616;2023-02-08T02:17:05;25.67;;;18.47;;
9224;SDS011;4647;48.072;11.616;2023-02-08T02:19:36;25.20;;;17.77;;
9224;SDS011;4647;48.072;11.616;2023-02-08T02:22:15;29.17;;;18.73;;
9224;SDS011;4647;48.072;11.616;2023-02-08T02:25:09;25.70;;;18.20;;
9224;SDS011;4647;48.072;11.616;2023-02-08T02:28:00;29.93;;;19.63;;
9224;SDS011;4647;48.072;11.616;2023-02-08T02:30:47;31.07;;;19.70;;
9224;SDS011;4647;48.072;11.616;2023-02-08T02:33:44;26.90;;;18.20;;
9224;SDS011;4647;48.072;11.616;2023-02-08T02:36:30;27.33;;;18.33;;
9224;SDS011;4647;48.072;11.616;2023-02-08T02:39:07;26.23;;;18.30;;
9224;SDS011;4647;48.072;11.616;2023-02-08T02:41:47;24.20;;;18.10;;
9224;SDS011;4647;48.072;11.616;2023-02-08T02:44:37;26.77;;;17.97;;
9224;SDS011;4647;48.072;11.616;2023-02-08T02:47:16;27.60;;;19.70;;
9224;SDS011;4647;48.072;11.616;2023-02-08T02:49:53;27.20;;;19.70;;
9224;SDS011;4647;48.072;11.616;2023-02-08T02:52:28;30.17;;;19.10;;
9224;SDS011;4647;48.072;11.616;2023-02-08T02:55:02;26.53;;;19.83;;
9224;SDS011;4647;48.072;11.616;2023-02-08T02:57:34;27.53;;;19.80;;
9224;SDS011;4647;48.072;11.616;2023-02-08T03:00:05;27.63;;;20.03;;
9224;SDS011;4647;48.072;11.616;2023-02-08T03:02:36;29.07;;;20.13;;
9224;SDS011;4647;48.072;11.616;2023-02-08T03:05:08;26.33;;;19.10;;
9224;SDS011;4647;48.072;11.616;2023-02-08T03:07:47;31.27;;;20.17;;
9224;SDS011;4647;48.072;11.616;2023-02-08T03:10:27;25.90;;;18.93;;
9224;SDS011;4647;48.072;11.616;2023-02-08T03:13:09;27.67;;;19.47;;
9224;SDS011;4647;48.072;11.616;2023-02-08T03:15:52;30.87;;;19.00;;
9224;SDS011;4647;48.072;11.616;2023-02-08T03:18:33;24.57;;;18.23;;
9224;SDS011;4647;48.072;11.616;2023-02-08T03:21:10;29.80;;;19.87;;
9224;SDS011;4647;48.072;11.616;2023-02-08T03:23:44;27.27;;;20.23;;
9224;SDS011;4647;48.072;11.616;2023-02-08T03:26:25;29.10;;;18.63;;
9224;SDS011;4647;48.072;11.616;2023-02-08T03:29:02;26.00;;;18.43;;
9224;SDS011;4647;48.072;11.616;2023-02-08T03:31:38;24.80;;;18.23;;
9224;SDS011;4647;48.072;11.616;2023-02-08T03:34:13;30.30;;;19.33;;
9224;SDS011;4647;48.072;11.616;2023-02-08T03:36:49;30.20;;;21.00;;
9224;SDS011;4647;48.072;11.616;2023-02-08T03:39:24;27.70;;;18.77;;
9224;SDS011;4647;48.072;11.616;2023-02-08T03:41:56;24.57;;;18.63;;
9224;SDS011;4647;48.072;11.616;2023-02-08T03:44:28;31.50;;;20.73;;
9224;SDS011;4647;48.072;11.616;2023-02-08T03:47:01;29.73;;;20.60;;
9224;SDS011;4647;48.072;11.616;2023-02-08T03:49:36;29.67;;;20.57;;
9224;SDS011;4647;48.072;11.616;2023-02-08T03:52:10;28.53;;;19.40;;
9224;SDS011;4647;48.072;11.616;2023-02-08T03:54:40;29.23;;;20.13;;
9224;SDS011;4647;48.072;11.616;2023-02-08T03:57:15;30.03;;;18.97;;
9224;SDS011;4647;48.072;11.616;2023-02-08T03:59:48;26.47;;;18.70;;
9224;SDS011;4647;48.072;11.616;2023-02-08T04:02:22;31.37;;;20.17;;
9224;SDS011;4647;48.072;11.616;2023-02-08T04:04:54;32.03;;;19.63;;
9224;SDS011;4647;48.072;11.616;2023-02-08T04:07:27;32.83;;;20.23;;
9224;SDS011;4647;48.072;11.616;2023-02-08T04:09:56;35.53;;;20.30;;
9224;SDS011;4647;48.072;11.616;2023-02-08T04:12:24;32.30;;;20.17;;
9224;SDS011;4647;48.072;11.616;2023-02-08T04:14:53;33.43;;;19.80;;
9224;SDS011;4647;48.072;11.616;2023-02-08T04:17:21;28.13;;;20.03;;
9224;SDS011;4647;48.072;11.616;2023-02-08T04:19:50;31.63;;;20.27;;
9224;SDS011;4647;48.072;11.616;2023-02-08T04:22:19;27.40;;;19.47;;
9224;SDS011;4647;48.072;11.616;2023-02-08T04:24:50;27.60;;;18.63;;
9224;SDS011;4647;48.072;11.616;2023-02-08T04:27:18;31.37;;;19.77;;
9224;SDS011;4647;48.072;11.616;2023-02-08T04:29:46;27.53;;;19.50;;
9224;SDS011;4647;48.072;11.616;2023-02-08T04:32:15;30.73;;;20.33;;
9224;SDS011;4647;48.072;11.616;2023-02-08T04:34:43;31.87;;;20.27;;
9224;SDS011;4647;48.072;11.616;2023-02-08T04:37:12;28.97;;;19.90;;
9224;SDS011;4647;48.072;11.616;2023-02-08T04:39:40;28.90;;;20.40;;
9224;SDS011;4647;48.072;11.616;2023-02-08T04:42:11;27.60;;;18.53;;
9224;SDS011;4647;48.072;11.616;2023-02-08T04:44:40;31.07;;;20.17;;
9224;SDS011;4647;48.072;11.616;2023-02-08T04:47:09;28.03;;;20.27;;
9224;SDS011;4647;48.072;11.616;2023-02-08T04:49:37;30.13;;;21.20;;
9224;SDS011;4647;48.072;11.616;2023-02-08T04:52:06;29.50;;;20.30;;
9224;SDS011;4647;48.072;11.616;2023-02-08T04:54:34;26.87;;;19.17;;
9224;SDS011;4647;48.072;11.616;2023-02-08T04:57:02;29.33;;;20.13;;
9224;SDS011;4647;48.072;11.616;2023-02-08T04:59:34;30.50;;;20.13;;
9224;SDS011;4647;48.072;11.616;2023-02-08T05:02:02;29.37;;;19.73;;
9224;SDS011;4647;48.072;11.616;2023-02-08T05:04:30;27.87;;;20.27;;
9224;SDS011;4647;48.072;11.616;2023-02-08T05:06:59;29.43;;;20.53;;
9224;SDS011;4647;48.072;11.616;2023-02-08T05:09:28;30.30;;;20.33;;
9224;SDS011;4647;48.072;11.616;2023-02-08T05:11:56;29.63;;;21.57;;
9224;SDS011;4647;48.072;11.616;2023-02-08T05:14:25;30.17;;;20.50;;
9224;SDS011;4647;48.072;11.616;2023-02-08T05:16:56;35.23;;;22.57;;
9224;SDS011;4647;48.072;11.616;2023-02-08T05:19:25;35.10;;;21.17;;
9224;SDS011;4647;48.072;11.616;2023-02-08T05:21:53;32.50;;;22.03;;
9224;SDS011;4647;48.072;11.616;2023-02-08T05:24:22;31.37;;;20.50;;
9224;SDS011;4647;48.072;11.616;2023-02-08T05:26:50;32.67;;;21.73;;
9224;SDS011;4647;48.072;11.616;2023-02-08T05:29:19;37.57;;;21.80;;
9224;SDS011;4647;48.072;11.616;2023-02-08T05:31:47;33.07;;;21.97;;
9224;SDS011;4647;48.072;11.616;2023-02-08T05:34:18;36.13;;;22.20;;
9224;SDS011;4647;48.072;11.616;2023-02-08T05:36:46;34.93;;;22.60;;
9224;SDS011;4647;48.072;11.616;2023-02-08T05:39:15;33.83;;;23.07;;
9224;SDS011;4647;48.072;11.616;2023-02-08T05:41:43;31.67;;;21.43;;
9224;SDS011;4647;48.072;11.616;2023-02-08T05:44:12;31.37;;;21.97;;
9224;SDS011;4647;48.072;11.616;2023-02-08T05:46:40;30.97;;;22.30;;
9224;SDS011;4647;48.072;11.616;2023-02-08T05:49:09;35.33;;;23.63;;
9224;SDS011;4647;48.072;11.616;2023-02-08T05:51:40;36.10;;;23.57;;
9224;SDS011;4647;48.072;11.616;2023-02-08T05:54:08;36.40;;;23.33;;
9224;SDS011;4647;48.072;11.616;2023-02-08T05:56:37;38.80;;;25.33;;
9224;SDS011;4647;48.072;11.616;2023-02-08T05:59:06;37.63;;;23.33;;
9224;SDS011;4647;48.072;11.616;2023-02-08T06:01:35;34.27;;;22.37;;
9224;SDS011;4647;48.072;11.616;2023-02-08T06:04:04;33.17;;;22.77;;
9224;SDS011;4647;48.072;11.616;2023-02-08T06:06:33;38.67;;;24.13;;
9224;SDS011;4647;48.072;11.616;2023-02-08T06:09:04;38.53;;;24.00;;
9224;SDS011;4647;48.072;11.616;2023-02-08T06:11:33;35.93;;;24.27;;
9224;SDS011;4647;48.072;11.616;2023-02-08T06:14:01;36.23;;;23.40;;
9224;SDS011;4647;48.072;11.616;2023-02-08T06:16:30;35.90;;;22.53;;
9224;SDS011;4647;48.072;11.616;2023-02-08T06:18:59;37.50;;;24.80;;
9224;SDS011;4647;48.072;11.616;2023-02-08T06:21:27;36.57;;;23.17;;
9224;SDS011;4647;48.072;11.616;2023-02-08T06:23:56;34.50;;;23.10;;
9224;SDS011;4647;48.072;11.616;2023-02-08T06:26:27;34.57;;;22.80;;
9224;SDS011;4647;48.072;11.616;2023-02-08T06:28:57;37.37;;;24.50;;
9224;SDS011;4647;48.072;11.616;2023-02-08T06:31:26;35.73;;;23.97;;
9224;SDS011;4647;48.072;11.616;2023-02-08T06:33:54;34.80;;;23.03;;
9224;SDS011;4647;48.072;11.616;2023-02-08T06:36:23;35.40;;;23.37;;
9224;SDS011;4647;48.072;11.616;2023-02-08T06:38:51;33.53;;;23.27;;
9224;SDS011;4647;48.072;11.616;2023-02-08T06:41:20;37.73;;;26.43;;
9224;SDS011;4647;48.072;11.616;2023-02-08T06:43:51;34.77;;;25.13;;
9224;SDS011;4647;48.072;11.616;2023-02-08T06:46:19;34.73;;;23.47;;
9224;SDS011;4647;48.072;11.616;2023-02-08T06:48:48;37.87;;;24.97;;
9224;SDS011;4647;48.072;11.616;2023-02-08T06:51:16;41.27;;;28.30;;
9224;SDS011;4647;48.072;11.616;2023-02-08T06:53:45;37.70;;;25.07;;
9224;SDS011;4647;48.072;11.616;2023-02-08T06:56:13;43.27;;;26.47;;
9224;SDS011;4647;48.072;11.616;2023-02-08T06:58:42;38.70;;;26.00;;
9224;SDS011;4647;48.072;11.616;2023-02-08T07:01:13;38.57;;;26.43;;
9224;SDS011;4647;48.072;11.616;2023-02-08T07:03:42;41.97;;;25.70;;
9224;SDS011;4647;48.072;11.616;2023-02-08T07:06:11;41.87;;;26.47;;
9224;SDS011;4647;48.072;11.616;2023-02-08T07:08:40;37.93;;;25.50;;
9224;SDS011;4647;48.072;11.616;2023-02-08T07:11:09;42.20;;;26.83;;
9224;SDS011;4647;48.072;11.616;2023-02-08T07:13:39;43.43;;;27.00;;
9224;SDS011;4647;48.072;11.616;2023-02-08T07:16:09;39.27;;;25.40;;
9224;SDS011;4647;48.072;11.616;2023-02-08T07:18:40;42.13;;;27.30;;
9224;SDS011;4647;48.072;11.616;2023-02-08T07:21:08;39.23;;;26.20;;
9224;SDS011;4647;48.072;11.616;2023-02-08T07:23:37;40.03;;;26.30;;
9224;SDS011;4647;48.072;11.616;2023-02-08T07:26:06;40.93;;;27.33;;
9224;SDS011;4647;48.072;11.616;2023-02-08T07:28:38;37.10;;;26.57;;
9224;SDS011;4647;48.072;11.616;2023-02-08T07:31:07;37.63;;;26.03;;
9224;SDS011;4647;48.072;11.616;2023-02-08T07:33:37;38.60;;;26.40;;
9224;SDS011;4647;48.072;11.616;2023-02-08T07:36:08;35.23;;;24.63;;
9224;SDS011;4647;48.072;11.616;2023-02-08T07:38:37;35.00;;;25.03;;
9224;SDS011;4647;48.072;11.616;2023-02-08T07:41:07;36.23;;;25.20;;
9224;SDS011;4647;48.072;11.616;2023-02-08T07:43:36;33.73;;;25.37;;
9224;SDS011;4647;48.072;11.616;2023-02-08T07:46:07;34.10;;;25.77;;
9224;SDS011;4647;48.072;11.616;2023-02-08T07:48:36;31.27;;;24.37;;
9224;SDS011;4647;48.072;11.616;2023-02-08T07:51:08;32.20;;;24.20;;
9224;SDS011;4647;48.072;11.616;2023-02-08T07:53:37;36.17;;;25.93;;
9224;SDS011;4647;48.072;11.616;2023-02-08T07:56:06;35.60;;;24.60;;
9224;SDS011;4647;48.072;11.616;2023-02-08T07:58:34;33.73;;;24.67;;
9224;SDS011;4647;48.072;11.616;2023-02-08T08:01:03;33.50;;;24.97;;
9224;SDS011;4647;48.072;11.616;2023-02-08T08:03:31;37.57;;;24.80;;
9224;SDS011;4647;48.072;11.616;2023-02-08T08:06:00;34.30;;;23.10;;
9224;SDS011;4647;48.072;11.616;2023-02-08T08:08:31;37.07;;;24.50;;
9224;SDS011;4647;48.072;11.616;2023-02-08T08:11:00;33.30;;;23.43;;
9224;SDS011;4647;48.072;11.616;2023-02-08T08:13:28;30.13;;;23.27;;
9224;SDS011;4647;48.072;11.616;2023-02-08T08:15:57;29.10;;;22.80;;
9224;SDS011;4647;48.072;11.616;2023-02-08T08:18:25;28.83;;;22.17;;
9224;SDS011;4647;48.072;11.616;2023-02-08T08:20:53;29.80;;;22.83;;
9224;SDS011;4647;48.072;11.616;2023-02-08T08:23:22;26.90;;;22.10;;
9224;SDS011;4647;48.072;11.616;2023-02-08T08:25:55;32.70;;;22.13;;
9224;SDS011;4647;48.072;11.616;2023-02-08T08:28:24;30.57;;;21.93;;
9224;SDS011;4647;48.072;11.616;2023-02-08T08:30:53;29.63;;;22.63;;
9224;SDS011;4647;48.072;11.616;2023-02-08T08:33:21;32.30;;;22.73;;
9224;SDS011;4647;48.072;11.616;2023-02-08T08:35:50;39.30;;;23.80;;
9224;SDS011;4647;48.072;11.616;2023-02-08T08:38:18;28.47;;;22.33;;
9224;SDS011;4647;48.072;11.616;2023-02-08T08:40:47;28.93;;;22.93;;
9224;SDS011;4647;48.072;11.616;2023-02-08T08:43:18;29.30;;;21.87;;
9224;SDS011;4647;48.072;11.616;2023-02-08T08:45:47;30.57;;;22.27;;
9224;SDS011;4647;48.072;11.616;2023-02-08T08:48:16;29.97;;;22.07;;
9224;SDS011;4647;48.072;11.616;2023-02-08T08:50:44;26.13;;;21.23;;
9224;SDS011;4647;48.072;11.616;2023-02-08T08:53:12;29.53;;;20.47;;
9224;SDS011;4647;48.072;11.616;2023-02-08T08:55:41;29.23;;;21.53;;
9224;SDS011;4647;48.072;11.616;2023-02-08T08:58:10;27.73;;;21.67;;
9224;SDS011;4647;48.072;11.616;2023-02-08T09:00:41;27.13;;;20.50;;
9224;SDS011;4647;48.072;11.616;2023-02-08T09:03:09;26.03;;;20.73;;
9224;SDS011;4647;48.072;11.616;2023-02-08T09:05:38;29.33;;;21.10;;
9224;SDS011;4647;48.072;11.616;2023-02-08T09:08:06;28.77;;;20.83;;
9224;SDS011;4647;48.072;11.616;2023-02-08T09:10:34;26.83;;;21.40;;
9224;SDS011;4647;48.072;11.616;2023-02-08T09:13:03;26.47;;;20.47;;
9224;SDS011;4647;48.072;11.616;2023-02-08T09:15:31;28.53;;;20.30;;
9224;SDS011;4647;48.072;11.616;2023-02-08T09:18:02;25.93;;;19.03;;
9224;SDS011;4647;48.072;11.616;2023-02-08T09:20:31;27.27;;;19.87;;
9224;SDS011;4647;48.072;11.616;2023-02-08T09:22:59;27.07;;;18.57;;
9224;SDS011;4647;48.072;11.616;2023-02-08T09:25:28;23.30;;;18.53;;
9224;SDS011;4647;48.072;11.616;2023-02-08T09:27:57;24.73;;;18.77;;
9224;SDS011;4647;48.072;11.616;2023-02-08T09:30:25;32.63;;;19.60;;
9224;SDS011;4647;48.072;11.616;2023-02-08T09:32:54;22.57;;;18.60;;
9224;SDS011;4647;48.072;11.616;2023-02-08T09:35:25;28.13;;;19.20;;
9224;SDS011;4647;48.072;11.616;2023-02-08T09:37:53;23.50;;;17.60;;
9224;SDS011;4647;48.072;11.616;2023-02-08T09:40:23;23.90;;;17.80;;
9224;SDS011;4647;48.072;11.616;2023-02-08T09:42:57;23.63;;;18.33;;
9224;SDS011;4647;48.072;11.616;2023-02-08T09:45:37;23.47;;;17.90;;
9224;SDS011;4647;48.072;11.616;2023-02-08T09:48:16;24.60;;;18.77;;
9224;SDS011;4647;48.072;11.616;2023-02-08T09:50:51;30.87;;;20.10;;
9224;SDS011;4647;48.072;11.616;2023-02-08T09:53:27;27.17;;;19.17;;
9224;SDS011;4647;48.072;11.616;2023-02-08T09:55:59;25.77;;;19.47;;
9224;SDS011;4647;48.072;11.616;2023-02-08T09:58:33;25.07;;;20.17;;
9224;SDS011;4647;48.072;11.616;2023-02-08T10:01:05;28.63;;;20.93;;
9224;SDS011;4647;48.072;11.616;2023-02-08T10:03:40;28.13;;;20.73;;
9224;SDS011;4647;48.072;11.616;2023-02-08T10:06:14;32.60;;;21.80;;
9224;SDS011;4647;48.072;11.616;2023-02-08T10:08:44;24.40;;;20.50;;
9224;SDS011;4647;48.072;11.616;2023-02-08T10:11:19;27.47;;;21.43;;
9224;SDS011;4647;48.072;11.616;2023-02-08T10:14:02;26.97;;;19.77;;
9224;SDS011;4647;48.072;11.616;2023-02-08T10:16:51;27.43;;;20.97;;
9224;SDS011;4647;48.072;11.616;2023-02-08T10:19:31;28.10;;;21.77;;
9224;SDS011;4647;48.072;11.616;2023-02-08T10:22:21;26.67;;;20.43;;
9224;SDS011;4647;48.072;11.616;2023-02-08T10:25:02;25.07;;;20.07;;
9224;SDS011;4647;48.072;11.616;2023-02-08T10:27:43;29.03;;;21.40;;
9224;SDS011;4647;48.072;11.616;2023-02-08T10:30:27;27.53;;;19.60;;
9224;SDS011;4647;48.072;11.616;2023-02-08T10:33:04;25.00;;;20.53;;
9224;SDS011;4647;48.072;11.616;2023-02-08T10:35:40;26.73;;;19.87;;
9224;SDS011;4647;48.072;11.616;2023-02-08T10:38:24;25.53;;;19.97;;
9224;SDS011;4647;48.072;11.616;2023-02-08T10:40:56;30.40;;;21.07;;
9224;SDS011;4647;48.072;11.616;2023-02-08T10:43:29;27.40;;;21.93;;
9224;SDS011;4647;48.072;11.616;2023-02-08T10:46:07;24.57;;;20.57;;
9224;SDS011;4647;48.072;11.616;2023-02-08T10:48:45;32.33;;;22.23;;
9224;SDS011;4647;48.072;11.616;2023-02-08T10:51:25;24.00;;;18.87;;
9224;SDS011;4647;48.072;11.616;2023-02-08T10:53:58;25.27;;;19.63;;
9224;SDS011;4647;48.072;11.616;2023-02-08T10:59:16;24.87;;;18.33;;
9224;SDS011;4647;48.072;11.616;2023-02-08T11:01:47;24.33;;;20.83;;
9224;SDS011;4647;48.072;11.616;2023-02-08T11:04:16;24.23;;;19.87;;
9224;SDS011;4647;48.072;11.616;2023-02-08T11:06:45;23.63;;;20.27;;
9224;SDS011;4647;48.072;11.616;2023-02-08T11:09:22;27.60;;;20.67;;
9224;SDS011;4647;48.072;11.616;2023-02-08T11:11:53;27.93;;;20.43;;
9224;SDS011;4647;48.072;11.616;2023-02-08T11:14:23;23.63;;;19.53;;
9224;SDS011;4647;48.072;11.616;2023-02-08T11:16:56;26.27;;;19.80;;
9224;SDS011;4647;48.072;11.616;2023-02-08T11:19:29;28.40;;;20.57;;
9224;SDS011;4647;48.072;11.616;2023-02-08T11:22:03;28.60;;;19.53;;
9224;SDS011;4647;48.072;11.616;2023-02-08T11:24:36;30.33;;;19.57;;
9224;SDS011;4647;48.072;11.616;2023-02-08T11:27:16;26.50;;;19.60;;
9224;SDS011;4647;48.072;11.616;2023-02-08T11:30:09;23.57;;;19.07;;
9224;SDS011;4647;48.072;11.616;2023-02-08T11:32:46;24.40;;;20.07;;
9224;SDS011;4647;48.072;11.616;2023-02-08T11:35:18;26.60;;;21.07;;
9224;SDS011;4647;48.072;11.616;2023-02-08T11:37:49;33.03;;;20.30;;
9224;SDS011;4647;48.072;11.616;2023-02-08T11:40:23;27.17;;;21.30;;
9224;SDS011;4647;48.072;11.616;2023-02-08T11:42:55;28.73;;;21.60;;
9224;SDS011;4647;48.072;11.616;2023-02-08T11:45:26;25.17;;;19.80;;
9224;SDS011;4647;48.072;11.616;2023-02-08T11:47:57;26.13;;;20.63;;
9224;SDS011;4647;48.072;11.616;2023-02-08T11:50:29;32.30;;;20.50;;
9224;SDS011;4647;48.072;11.616;2023-02-08T11:52:59;30.77;;;21.63;;
9224;SDS011;4647;48.072;11.616;2023-02-08T11:55:33;27.97;;;21.30;;
9224;SDS011;4647;48.072;11.616;2023-02-08T11:58:03;28.90;;;21.50;;
9224;SDS011;4647;48.072;11.616;2023-02-08T12:00:56;28.53;;;22.27;;
9224;SDS011;4647;48.072;11.616;2023-02-08T12:03:27;33.17;;;20.80;;
9224;SDS011;4647;48.072;11.616;2023-02-08T12:06:02;23.53;;;20.43;;
9224;SDS011;4647;48.072;11.616;2023-02-08T12:08:44;27.00;;;21.57;;
9224;SDS011;4647;48.072;11.616;2023-02-08T12:11:25;24.40;;;20.47;;
9224;SDS011;4647;48.072;11.616;2023-02-08T12:14:05;31.03;;;21.83;;
9224;SDS011;4647;48.072;11.616;2023-02-08T12:16:59;27.77;;;19.70;;
9224;SDS011;4647;48.072;11.616;2023-02-08T12:19:50;25.37;;;20.67;;
9224;SDS011;4647;48.072;11.616;2023-02-08T12:22:38;26.27;;;20.20;;
9224;SDS011;4647;48.072;11.616;2023-02-08T12:25:15;26.17;;;20.77;;
9224;SDS011;4647;48.072;11.616;2023-02-08T12:27:53;27.03;;;22.30;;
9224;SDS011;4647;48.072;11.616;2023-02-08T12:30:32;28.13;;;21.53;;
9224;SDS011;4647;48.072;11.616;2023-02-08T12:36:07;24.37;;;20.83;;
9224;SDS011;4647;48.072;11.616;2023-02-08T12:39:04;26.60;;;23.27;;
9224;SDS011;4647;48.072;11.616;2023-02-08T12:41:59;25.43;;;22.17;;
9224;SDS011;4647;48.072;11.616;2023-02-08T12:44:44;24.93;;;21.47;;
9224;SDS011;4647;48.072;11.616;2023-02-08T12:47:29;27.33;;;22.90;;
9224;SDS011;4647;48.072;11.616;2023-02-08T12:50:12;24.57;;;21.33;;
9224;SDS011;4647;48.072;11.616;2023-02-08T12:52:51;28.00;;;21.00;;
9224;SDS011;4647;48.072;11.616;2023-02-08T12:55:25;28.10;;;21.80;;
9224;SDS011;4647;48.072;11.616;2023-02-08T12:57:58;27.43;;;22.53;;
9224;SDS011;4647;48.072;11.616;2023-02-08T13:00:35;25.77;;;22.53;;
9224;SDS011;4647;48.072;11.616;2023-02-08T13:03:10;26.83;;;22.33;;
9224;SDS011;4647;48.072;11.616;2023-02-08T13:05:57;28.30;;;23.40;;
9224;SDS011;4647;48.072;11.616;2023-02-08T13:08:26;29.43;;;22.40;;
9224;SDS011;4647;48.072;11.616;2023-02-08T13:11:00;26.47;;;22.50;;
9224;SDS011;4647;48.072;11.616;2023-02-08T13:13:33;23.53;;;19.97;;
9224;SDS011;4647;48.072;11.616;2023-02-08T13:16:08;27.00;;;19.60;;
9224;SDS011;4647;48.072;11.616;2023-02-08T13:18:45;26.07;;;21.13;;
9224;SDS011;4647;48.072;11.616;2023-02-08T13:21:21;23.10;;;20.23;;
9224;SDS011;4647;48.072;11.616;2023-02-08T13:23:52;24.37;;;21.20;;
9224;SDS011;4647;48.072;11.616;2023-02-08T13:26:21;27.60;;;21.17;;
9224;SDS011;4647;48.072;11.616;2023-02-08T13:28:53;26.77;;;20.90;;
9224;SDS011;4647;48.072;11.616;2023-02-08T13:31:26;30.53;;;19.60;;
9224;SDS011;4647;48.072;11.616;2023-02-08T13:33:58;26.43;;;19.20;;
9224;SDS011;4647;48.072;11.616;2023-02-08T13:36:32;25.83;;;20.90;;
9224;SDS011;4647;48.072;11.616;2023-02-08T13:39:03;30.83;;;22.17;;
9224;SDS011;4647;48.072;11.616;2023-02-08T13:41:34;24.17;;;20.90;;
9224;SDS011;4647;48.072;11.616;2023-02-08T13:44:04;26.10;;;21.43;;
9224;SDS011;4647;48.072;11.616;2023-02-08T13:46:43;26.07;;;21.43;;
9224;SDS011;4647;48.072;11.616;2023-02-08T13:52:08;28.37;;;21.43;;
9224;SDS011;4647;48.072;11.616;2023-02-08T13:54:38;24.17;;;19.63;;
9224;SDS011;4647;48.072;11.616;2023-02-08T14:00:16;30.70;;;21.80;;
9224;SDS011;4647;48.072;11.616;2023-02-08T14:03:01;29.23;;;21.33;;
9224;SDS011;4647;48.072;11.616;2023-02-08T14:05:46;27.37;;;21.37;;
9224;SDS011;4647;48.072;11.616;2023-02-08T14:08:21;31.20;;;21.17;;
9224;SDS011;4647;48.072;11.616;2023-02-08T14:11:00;29.40;;;21.27;;
9224;SDS011;4647;48.072;11.616;2023-02-08T14:13:34;26.23;;;21.83;;
9224;SDS011;4647;48.072;11.616;2023-02-08T14:18:56;28.40;;;23.20;;
9224;SDS011;4647;48.072;11.616;2023-02-08T14:21:31;31.00;;;22.53;;
9224;SDS011;4647;48.072;11.616;2023-02-08T14:24:04;29.67;;;24.27;;
9224;SDS011;4647;48.072;11.616;2023-02-08T14:26:35;25.77;;;21.93;;
9224;SDS011;4647;48.072;11.616;2023-02-08T14:29:04;30.27;;;21.93;;
9224;SDS011;4647;48.072;11.616;2023-02-08T14:31:35;25.33;;;21.63;;
9224;SDS011;4647;48.072;11.616;2023-02-08T14:34:14;26.37;;;20.20;;
9224;SDS011;4647;48.072;11.616;2023-02-08T14:36:57;30.90;;;22.13;;
9224;SDS011;4647;48.072;11.616;2023-02-08T14:39:28;26.20;;;21.90;;
9224;SDS011;4647;48.072;11.616;2023-02-08T14:41:59;26.23;;;20.57;;
9224;SDS011;4647;48.072;11.616;2023-02-08T14:50:47;25.90;;;21.17;;
9224;SDS011;4647;48.072;11.616;2023-02-08T14:53:30;23.93;;;19.93;;
9224;SDS011;4647;48.072;11.616;2023-02-08T14:56:04;24.10;;;18.40;;
9224;SDS011;4647;48.072;11.616;2023-02-08T14:58:42;29.30;;;21.27;;
9224;SDS011;4647;48.072;11.616;2023-02-08T15:01:15;24.10;;;19.43;;
9224;SDS011;4647;48.072;11.616;2023-02-08T15:03:46;29.20;;;20.33;;
9224;SDS011;4647;48.072;11.616;2023-02-08T15:09:29;25.63;;;20.67;;
9224;SDS011;4647;48.072;11.616;2023-02-08T15:12:03;22.00;;;18.77;;
9224;SDS011;4647;48.072;11.616;2023-02-08T15:14:34;23.53;;;19.30;;
9224;SDS011;4647;48.072;11.616;2023-02-08T15:17:13;26.57;;;19.47;;
9224;SDS011;4647;48.072;11.616;2023-02-08T15:19:47;26.90;;;18.87;;
9224;SDS011;4647;48.072;11.616;2023-02-08T15:22:28;22.57;;;19.23;;
9224;SDS011;4647;48.072;11.616;2023-02-08T15:25:11;27.50;;;20.57;;
9224;SDS011;4647;48.072;11.616;2023-02-08T15:27:48;25.03;;;18.47;;
9224;SDS011;4647;48.072;11.616;2023-02-08T15:30:22;23.83;;;18.80;;